Airport View

Enter AWOS ICAO identifier for current METAR.

ex. KFNL

KIXA 101615Z AUTO 00000KT 10SM CLR 29/25 A3008 RMK AO2

10 Aug 2020 16:23

Frequency: 119.975

Phone: 252-583-3446

Other Area AWOS: KASJ - KEMV - KETC - KLVL

TAF KRWI 101124Z 1012/1112 20005KT 3SM BR FEW006 SCT110 SCT250 FM101300 VRB03KT P6SM SCT015 FM101600 18005KT P6SM SCT045 SCT110 BKN250 TEMPO 1020/1024 VRB15G30KT TS BKN050CB OVC110 FM110900 16003KT 2SM BR BKN004